createdAt,value
2018-07-07T00:02:10.572Z,5.43
2018-07-07T00:04:39.898Z,5.87
2018-07-07T00:07:19.820Z,7.03
2018-07-07T00:09:49.830Z,10.53
2018-07-07T00:12:19.216Z,6.30
2018-07-07T00:14:48.539Z,6.23
2018-07-07T00:17:18.009Z,7.37
2018-07-07T00:19:47.388Z,6.07
2018-07-07T00:22:16.733Z,7.37
2018-07-07T00:24:46.157Z,5.70
2018-07-07T00:27:15.740Z,5.93
2018-07-07T00:29:45.677Z,5.40
2018-07-07T00:32:15.212Z,7.30
2018-07-07T00:34:44.974Z,6.27
2018-07-07T00:37:14.317Z,7.70
2018-07-07T00:39:43.665Z,6.57
2018-07-07T00:42:13.050Z,5.80
2018-07-07T00:44:42.392Z,5.37
2018-07-07T00:47:12.684Z,7.30
2018-07-07T00:49:42.017Z,5.30
2018-07-07T00:52:11.422Z,6.63
2018-07-07T00:54:40.780Z,6.30
2018-07-07T00:57:11.201Z,5.80
2018-07-07T00:59:40.585Z,7.30
2018-07-07T01:02:20.753Z,5.97
2018-07-07T01:04:51.741Z,5.73
2018-07-07T01:07:21.664Z,8.70
2018-07-07T01:09:51.074Z,8.83
2018-07-07T01:12:20.465Z,7.53
2018-07-07T01:14:49.891Z,6.80
2018-07-07T01:17:19.297Z,5.50
2018-07-07T01:19:48.798Z,6.13
2018-07-07T01:22:18.196Z,5.90
2018-07-07T01:24:47.517Z,5.70
2018-07-07T01:27:16.962Z,5.53
2018-07-07T01:29:46.325Z,7.23
2018-07-07T01:32:15.701Z,4.77
2018-07-07T01:34:45.053Z,5.43
2018-07-07T01:37:14.501Z,4.83
2018-07-07T01:39:43.874Z,5.40
2018-07-07T01:42:13.296Z,5.50
2018-07-07T01:44:43.640Z,4.60
2018-07-07T01:47:13.012Z,4.77
2018-07-07T01:49:42.407Z,5.43
2018-07-07T01:52:11.760Z,6.03
2018-07-07T01:54:41.140Z,6.70
2018-07-07T01:57:27.653Z,5.00
2018-07-07T01:59:57.057Z,5.43
2018-07-07T02:02:26.172Z,5.07
2018-07-07T02:04:55.400Z,5.33
2018-07-07T02:07:24.828Z,5.67
2018-07-07T02:09:54.241Z,5.33
2018-07-07T02:12:23.612Z,9.87
2018-07-07T02:15:02.213Z,5.33
2018-07-07T02:17:31.571Z,6.20
2018-07-07T02:20:01.005Z,6.07
2018-07-07T02:22:30.353Z,7.60
2018-07-07T02:24:59.744Z,6.10
2018-07-07T02:27:29.149Z,6.60
2018-07-07T02:30:04.902Z,5.70
2018-07-07T02:32:34.294Z,5.80
2018-07-07T02:35:03.820Z,6.07
2018-07-07T02:37:32.924Z,5.47
2018-07-07T02:40:02.264Z,5.67
2018-07-07T02:42:31.637Z,5.73
2018-07-07T02:45:01.118Z,5.57
2018-07-07T02:47:30.513Z,5.90
2018-07-07T02:49:59.904Z,5.73
2018-07-07T02:52:29.242Z,5.33
2018-07-07T02:55:03.577Z,5.37
2018-07-07T02:57:32.916Z,4.73
2018-07-07T03:00:02.289Z,6.40
2018-07-07T03:02:31.645Z,6.87
2018-07-07T03:05:11.280Z,4.67
2018-07-07T03:07:40.331Z,5.80
2018-07-07T03:10:09.425Z,5.60
2018-07-07T03:12:38.492Z,5.80
2018-07-07T03:15:20.432Z,6.43
2018-07-07T03:17:49.674Z,6.97
2018-07-07T03:20:18.852Z,4.83
2018-07-07T03:22:48.145Z,7.43
2018-07-07T03:25:31.165Z,6.30
2018-07-07T03:28:00.300Z,5.77
2018-07-07T03:30:29.484Z,8.00
2018-07-07T03:32:58.562Z,5.10
2018-07-07T03:35:27.760Z,6.93
2018-07-07T03:37:56.890Z,9.10
2018-07-07T03:40:26.000Z,7.70
2018-07-07T03:42:55.075Z,5.07
2018-07-07T03:45:26.392Z,5.37
2018-07-07T03:47:55.784Z,5.90
2018-07-07T03:50:25.172Z,5.93
2018-07-07T03:52:54.506Z,6.27
2018-07-07T03:55:40.561Z,6.33
2018-07-07T03:58:09.923Z,5.43
2018-07-07T04:00:39.258Z,4.97
2018-07-07T04:03:08.696Z,5.30
2018-07-07T04:05:38.179Z,5.57
2018-07-07T04:08:07.521Z,8.77
2018-07-07T04:10:36.893Z,8.23
2018-07-07T04:13:06.560Z,5.40
2018-07-07T04:15:51.221Z,8.60
2018-07-07T04:18:25.582Z,7.27
2018-07-07T04:20:54.900Z,7.97
2018-07-07T04:23:24.277Z,8.43
2018-07-07T04:25:58.293Z,4.90
2018-07-07T04:28:28.073Z,5.03
2018-07-07T04:30:57.446Z,5.23
2018-07-07T04:33:27.492Z,5.60
2018-07-07T04:36:01.545Z,8.33
2018-07-07T04:38:30.877Z,4.77
2018-07-07T04:41:00.185Z,7.03
2018-07-07T04:43:29.466Z,5.53
2018-07-07T04:46:00.901Z,7.00
2018-07-07T04:48:30.177Z,7.33
2018-07-07T04:50:59.492Z,5.20
2018-07-07T04:53:28.808Z,7.53
2018-07-07T04:55:59.242Z,5.40
2018-07-07T04:58:28.748Z,5.40
2018-07-07T05:00:57.946Z,10.47
2018-07-07T05:03:27.245Z,5.33
2018-07-07T05:05:57.853Z,5.43
2018-07-07T05:08:27.233Z,5.30
2018-07-07T05:10:56.545Z,6.33
2018-07-07T05:13:25.852Z,5.30
2018-07-07T05:15:57.251Z,5.13
2018-07-07T05:18:26.589Z,9.37
2018-07-07T05:20:56.001Z,10.33
2018-07-07T05:23:25.389Z,6.80
2018-07-07T05:26:01.757Z,4.20
2018-07-07T05:28:31.119Z,8.43
2018-07-07T05:31:00.465Z,7.43
2018-07-07T05:33:29.827Z,9.43
2018-07-07T05:35:59.275Z,4.83
2018-07-07T05:38:28.618Z,4.37
2018-07-07T05:41:01.007Z,5.77
2018-07-07T05:43:30.410Z,5.00
2018-07-07T05:46:01.858Z,6.20
2018-07-07T05:48:31.273Z,4.57
2018-07-07T05:51:00.657Z,3.07
2018-07-07T05:53:29.981Z,4.80
2018-07-07T05:56:00.385Z,3.80
2018-07-07T05:58:29.737Z,3.00
2018-07-07T06:00:59.141Z,4.00
2018-07-07T06:03:28.503Z,5.37
2018-07-07T06:05:58.914Z,6.83
2018-07-07T06:08:28.325Z,7.27
2018-07-07T06:10:57.657Z,4.33
2018-07-07T06:13:27.028Z,4.67
2018-07-07T06:16:00.761Z,3.93
2018-07-07T06:18:30.161Z,3.87
2018-07-07T06:21:02.375Z,4.13
2018-07-07T06:23:31.621Z,4.37
2018-07-07T06:26:08.455Z,2.40
2018-07-07T06:28:37.899Z,3.97
2018-07-07T06:31:07.427Z,4.87
2018-07-07T06:33:36.752Z,1.70
2018-07-07T06:36:21.093Z,2.13
2018-07-07T06:38:50.413Z,2.87
2018-07-07T06:41:19.807Z,5.90
2018-07-07T06:43:49.309Z,2.20
2018-07-07T06:46:33.205Z,3.40
2018-07-07T06:49:02.569Z,2.90
2018-07-07T06:51:32.020Z,2.37
2018-07-07T06:54:01.475Z,2.43
2018-07-07T06:56:44.873Z,3.37
2018-07-07T06:59:14.262Z,2.80
2018-07-07T07:01:43.635Z,4.37
2018-07-07T07:04:13.014Z,2.90
2018-07-07T07:06:46.261Z,4.03
2018-07-07T07:09:15.673Z,6.07
2018-07-07T07:11:44.994Z,5.00
2018-07-07T07:14:14.420Z,3.90
2018-07-07T07:16:49.218Z,3.40
2018-07-07T07:19:18.593Z,5.57
2018-07-07T07:21:48.013Z,2.77
2018-07-07T07:24:17.359Z,4.20
2018-07-07T07:26:58.196Z,5.03
2018-07-07T07:29:27.552Z,3.90
2018-07-07T07:31:56.926Z,5.03
2018-07-07T07:34:26.287Z,3.73
2018-07-07T07:36:55.737Z,3.50
2018-07-07T07:39:25.109Z,8.63
2018-07-07T07:41:54.573Z,4.33
2018-07-07T07:44:23.929Z,5.07
2018-07-07T07:46:54.328Z,3.40
2018-07-07T07:49:23.649Z,14.97
2018-07-07T07:51:53.210Z,3.50
2018-07-07T07:54:22.245Z,3.33
2018-07-07T07:56:52.276Z,5.83
2018-07-07T07:59:21.636Z,3.40
2018-07-07T08:01:51.189Z,3.50
2018-07-07T08:04:20.549Z,5.07
2018-07-07T08:06:49.989Z,5.53
2018-07-07T08:09:19.414Z,5.43
2018-07-07T08:11:48.703Z,2.70
2018-07-07T08:14:18.066Z,3.00
2018-07-07T08:16:49.161Z,3.98
2018-07-07T08:19:18.477Z,3.40
2018-07-07T08:21:47.828Z,3.23
2018-07-07T08:24:16.949Z,4.50
2018-07-07T08:27:02.888Z,5.00
2018-07-07T08:29:31.993Z,2.93
2018-07-07T08:32:01.049Z,3.62
2018-07-07T08:34:30.207Z,5.20
2018-07-07T08:37:03.597Z,6.58
2018-07-07T08:39:32.921Z,3.13
2018-07-07T08:42:02.349Z,4.03
2018-07-07T08:44:31.661Z,3.58
2018-07-07T08:47:05.022Z,4.90
2018-07-07T08:49:34.390Z,3.62
2018-07-07T08:52:03.698Z,3.72
2018-07-07T08:54:33.011Z,4.30
2018-07-07T08:57:16.413Z,3.67
2018-07-07T08:59:45.755Z,2.98
2018-07-07T09:02:15.114Z,2.83
2018-07-07T09:04:44.402Z,4.28
2018-07-07T09:07:13.873Z,5.47
2018-07-07T09:09:43.810Z,2.80
2018-07-07T09:12:13.506Z,3.62
2018-07-07T09:14:43.169Z,4.40
2018-07-07T09:17:12.596Z,4.30
2018-07-07T09:19:41.973Z,2.87
2018-07-07T09:22:11.778Z,2.95
2018-07-07T09:24:41.205Z,3.25
2018-07-07T09:27:18.278Z,3.08
2018-07-07T09:29:47.540Z,2.62
2018-07-07T09:32:16.961Z,2.33
2018-07-07T09:34:46.336Z,2.12
2018-07-07T09:37:15.665Z,3.45
2018-07-07T09:39:44.661Z,2.95
2018-07-07T09:42:14.026Z,2.47
2018-07-07T09:44:43.438Z,3.52
2018-07-07T09:47:12.721Z,3.15
2018-07-07T09:49:42.071Z,2.80
2018-07-07T09:52:11.457Z,3.25
2018-07-07T09:54:47.474Z,3.55
2018-07-07T09:57:16.853Z,2.72
2018-07-07T09:59:45.962Z,4.55
2018-07-07T10:02:15.122Z,2.98
2018-07-07T10:04:44.177Z,2.58
2018-07-07T10:07:13.296Z,2.20
2018-07-07T10:09:42.408Z,2.35
2018-07-07T10:12:11.490Z,2.92
2018-07-07T10:14:40.573Z,2.15
2018-07-07T10:17:32.702Z,2.42
2018-07-07T10:20:01.805Z,2.90
2018-07-07T10:22:30.941Z,2.72
2018-07-07T10:25:01.233Z,2.33
2018-07-07T10:27:30.533Z,2.33
2018-07-07T10:29:59.927Z,2.72
2018-07-07T10:32:29.186Z,7.47
2018-07-07T10:35:12.429Z,2.65
2018-07-07T10:37:41.850Z,3.40
2018-07-07T10:40:11.261Z,3.52
2018-07-07T10:42:40.382Z,2.40
2018-07-07T10:45:09.766Z,4.42
2018-07-07T10:47:39.125Z,2.60
2018-07-07T10:50:08.503Z,2.60
2018-07-07T10:52:37.833Z,2.25
2018-07-07T10:55:08.204Z,2.98
2018-07-07T10:57:37.515Z,2.67
2018-07-07T11:00:07.646Z,4.83
2018-07-07T11:02:37.057Z,3.40
2018-07-07T11:05:07.525Z,5.58
2018-07-07T11:07:36.838Z,2.17
2018-07-07T11:10:06.191Z,3.75
2018-07-07T11:12:35.577Z,2.65
2018-07-07T11:15:08.121Z,3.35
2018-07-07T11:17:37.116Z,2.22
2018-07-07T11:20:06.559Z,5.08
2018-07-07T11:22:35.930Z,2.05
2018-07-07T11:25:08.713Z,2.72
2018-07-07T11:27:38.104Z,2.37
2018-07-07T11:30:07.557Z,3.58
2018-07-07T11:32:36.966Z,3.45
2018-07-07T11:35:10.699Z,2.42
2018-07-07T11:37:40.933Z,4.00
2018-07-07T11:40:10.326Z,2.77
2018-07-07T11:42:39.653Z,2.27
2018-07-07T11:45:23.324Z,3.72
2018-07-07T11:47:52.456Z,2.30
2018-07-07T11:50:21.876Z,2.60
2018-07-07T11:52:51.143Z,4.03
2018-07-07T11:55:20.690Z,2.40
2018-07-07T11:57:50.102Z,4.17
2018-07-07T12:00:19.590Z,3.72
2018-07-07T12:02:49.080Z,3.40
2018-07-07T12:05:19.593Z,2.22
2018-07-07T12:08:00.712Z,2.77
2018-07-07T12:10:18.526Z,3.27
2018-07-07T12:12:47.655Z,2.12
2018-07-07T12:15:28.380Z,3.25
2018-07-07T12:17:57.799Z,2.50
2018-07-07T12:20:27.187Z,2.40
2018-07-07T12:22:56.634Z,2.60
2018-07-07T12:25:33.489Z,3.27
2018-07-07T12:28:02.861Z,2.27
2018-07-07T12:30:32.281Z,2.65
2018-07-07T12:33:01.751Z,2.58
2018-07-07T12:35:33.190Z,3.40
2018-07-07T12:38:02.531Z,2.45
2018-07-07T12:40:31.906Z,2.15
2018-07-07T12:43:01.296Z,4.85
2018-07-07T12:45:38.521Z,3.77
2018-07-07T12:48:07.901Z,2.92
2018-07-07T12:50:37.236Z,2.62
2018-07-07T12:53:06.600Z,3.27
2018-07-07T12:55:38.142Z,2.45
2018-07-07T12:58:07.472Z,2.33
2018-07-07T13:00:36.600Z,4.17
2018-07-07T13:03:05.905Z,2.30
2018-07-07T13:05:47.553Z,2.40
2018-07-07T13:08:16.827Z,2.22
2018-07-07T13:10:46.216Z,2.22
2018-07-07T13:13:15.711Z,2.92
2018-07-07T13:15:45.236Z,4.47
2018-07-07T13:18:14.591Z,2.58
2018-07-07T13:20:44.065Z,4.42
2018-07-07T13:23:13.398Z,1.87
2018-07-07T13:25:42.884Z,2.25
2018-07-07T13:28:12.064Z,2.70
2018-07-07T13:30:41.448Z,3.50
2018-07-07T13:33:10.923Z,3.00
2018-07-07T13:35:48.604Z,2.27
2018-07-07T13:38:17.981Z,3.50
2018-07-07T13:40:47.365Z,2.22
2018-07-07T13:43:16.900Z,2.98
2018-07-07T13:46:00.027Z,4.45
2018-07-07T13:48:29.381Z,2.30
2018-07-07T13:50:58.824Z,2.35
2018-07-07T13:53:28.093Z,1.98
2018-07-07T13:56:01.237Z,2.22
2018-07-07T13:58:30.621Z,2.22
2018-07-07T14:01:00.033Z,2.27
2018-07-07T14:03:29.731Z,4.15
2018-07-07T14:06:04.210Z,1.90
2018-07-07T14:08:33.604Z,1.98
2018-07-07T14:11:03.063Z,1.65
2018-07-07T14:13:32.410Z,2.02
2018-07-07T14:16:11.262Z,2.95
2018-07-07T14:18:40.671Z,2.00
2018-07-07T14:21:10.093Z,2.45
2018-07-07T14:23:39.506Z,1.95
2018-07-07T14:26:14.265Z,1.85
2018-07-07T14:28:43.622Z,2.80
2018-07-07T14:31:13.007Z,2.20
2018-07-07T14:33:42.370Z,2.10
2018-07-07T14:36:13.834Z,3.47
2018-07-07T14:38:42.925Z,2.60
2018-07-07T14:41:16.588Z,2.00
2018-07-07T14:43:53.130Z,1.90
2018-07-07T14:46:28.401Z,4.10
2018-07-07T14:48:57.509Z,2.37
2018-07-07T14:51:26.685Z,1.98
2018-07-07T14:53:55.960Z,2.05
2018-07-07T14:56:33.885Z,2.22
2018-07-07T14:59:03.245Z,1.60
2018-07-07T15:01:32.652Z,2.75
2018-07-07T15:04:03.656Z,2.15
2018-07-07T15:06:35.184Z,3.40
2018-07-07T15:09:04.973Z,1.82
2018-07-07T15:11:33.986Z,1.75
2018-07-07T15:14:04.305Z,1.87
2018-07-07T15:16:33.793Z,2.15
2018-07-07T15:19:03.169Z,2.33
2018-07-07T15:21:32.561Z,1.60
2018-07-07T15:24:01.928Z,3.37
2018-07-07T15:26:34.993Z,2.20
2018-07-07T15:29:04.048Z,1.77
2018-07-07T15:31:33.345Z,2.00
2018-07-07T15:34:02.790Z,2.12
2018-07-07T15:36:36.209Z,1.80
2018-07-07T15:39:06.578Z,2.42
2018-07-07T15:41:36.001Z,2.05
2018-07-07T15:44:05.334Z,2.00
2018-07-07T15:46:35.477Z,1.82
2018-07-07T15:49:05.114Z,2.35
2018-07-07T15:51:34.489Z,1.60
2018-07-07T15:54:03.827Z,1.90
2018-07-07T15:56:35.265Z,1.60
2018-07-07T15:59:04.597Z,2.00
2018-07-07T16:01:33.908Z,1.90
2018-07-07T16:04:09.965Z,2.65
2018-07-07T16:06:41.418Z,2.22
2018-07-07T16:09:10.793Z,1.57
2018-07-07T16:11:40.288Z,2.30
2018-07-07T16:14:09.685Z,1.77
2018-07-07T16:16:39.193Z,2.50
2018-07-07T16:19:09.368Z,2.35
2018-07-07T16:21:38.708Z,1.77
2018-07-07T16:24:08.134Z,1.85
2018-07-07T16:26:38.605Z,1.72
2018-07-07T16:29:08.030Z,2.20
2018-07-07T16:31:37.409Z,4.40
2018-07-07T16:34:06.785Z,1.95
2018-07-07T16:36:57.697Z,2.25
2018-07-07T16:39:27.108Z,2.08
2018-07-07T16:41:57.137Z,2.25
2018-07-07T16:44:26.954Z,2.58
2018-07-07T16:47:03.576Z,1.80
2018-07-07T16:49:33.428Z,3.15
2018-07-07T16:52:03.293Z,1.65
2018-07-07T16:54:32.643Z,1.85
2018-07-07T16:57:02.033Z,2.35
2018-07-07T16:59:39.464Z,1.20
2018-07-07T17:02:08.744Z,1.62
2018-07-07T17:04:38.342Z,1.17
2018-07-07T17:07:07.674Z,1.70
2018-07-07T17:09:37.085Z,1.27
2018-07-07T17:12:06.637Z,1.75
2018-07-07T17:14:36.137Z,1.40
2018-07-07T17:17:07.428Z,2.75
2018-07-07T17:19:36.769Z,1.65
2018-07-07T17:22:06.154Z,1.50
2018-07-07T17:24:35.489Z,1.72
2018-07-07T17:27:12.070Z,5.28
2018-07-07T17:29:41.409Z,1.70
2018-07-07T17:32:10.785Z,2.27
2018-07-07T17:34:40.488Z,4.72
2018-07-07T17:37:10.776Z,1.40
2018-07-07T17:39:40.224Z,2.60
2018-07-07T17:42:09.861Z,1.40
2018-07-07T17:44:39.225Z,1.92
2018-07-07T17:47:09.642Z,3.37
2018-07-07T17:49:39.718Z,2.20
2018-07-07T17:52:08.912Z,0.95
2018-07-07T17:54:38.350Z,1.50
2018-07-07T17:57:29.817Z,2.70
2018-07-07T17:59:59.177Z,1.20
2018-07-07T18:02:28.487Z,2.42
2018-07-07T18:07:26.905Z,2.35
2018-07-07T18:09:55.984Z,1.15
2018-07-07T18:12:25.077Z,1.98
2018-07-07T18:14:56.454Z,3.15
2018-07-07T18:17:25.865Z,2.17
2018-07-07T18:19:55.276Z,1.20
2018-07-07T18:22:24.705Z,1.25
2018-07-07T18:24:54.088Z,2.80
2018-07-07T18:27:23.365Z,1.10
2018-07-07T18:29:52.648Z,4.20
2018-07-07T18:32:22.003Z,2.33
2018-07-07T18:34:51.340Z,1.25
2018-07-07T18:37:20.725Z,2.33
2018-07-07T18:39:50.112Z,3.70
2018-07-07T18:42:19.441Z,1.27
2018-07-07T18:44:48.840Z,2.00
2018-07-07T18:47:18.201Z,2.70
2018-07-07T18:49:47.637Z,2.43
2018-07-07T18:52:18.037Z,2.77
2018-07-07T18:54:47.385Z,1.60
2018-07-07T18:57:16.744Z,4.17
2018-07-07T18:59:46.118Z,3.83
2018-07-07T19:02:15.513Z,2.97
2018-07-07T19:04:44.930Z,1.40
2018-07-07T19:07:14.265Z,3.07
2018-07-07T19:09:43.629Z,1.70
2018-07-07T19:12:12.941Z,4.27
2018-07-07T19:14:42.304Z,1.97
2018-07-07T19:17:16.058Z,4.47
2018-07-07T19:19:45.372Z,2.43
2018-07-07T19:23:18.921Z,5.30
2018-07-07T19:25:53.453Z,1.60
2018-07-07T19:28:22.888Z,2.37
2018-07-07T19:30:52.253Z,2.00
2018-07-07T19:33:26.802Z,3.93
2018-07-07T19:36:05.489Z,5.80
2018-07-07T19:38:34.865Z,1.40
2018-07-07T19:41:04.171Z,2.20
2018-07-07T19:43:33.636Z,2.33
2018-07-07T19:46:29.100Z,3.53
2018-07-07T19:48:58.489Z,1.90
2018-07-07T19:51:27.928Z,1.87
2018-07-07T19:53:57.397Z,1.70
2018-07-07T19:56:27.756Z,2.37
2018-07-07T19:58:57.125Z,2.03
2018-07-07T20:01:26.477Z,2.10
2018-07-07T20:03:55.853Z,1.40
2018-07-07T20:06:39.898Z,4.73
2018-07-07T20:09:09.453Z,3.87
2018-07-07T20:11:38.806Z,9.50
2018-07-07T20:14:08.254Z,5.87
2018-07-07T20:16:59.433Z,7.33
2018-07-07T20:19:29.745Z,2.57
2018-07-07T20:22:00.988Z,2.13
2018-07-07T20:24:34.637Z,2.50
2018-07-07T20:27:23.700Z,2.93
2018-07-07T20:29:53.094Z,3.93
2018-07-07T20:32:27.633Z,3.17
2018-07-07T20:34:59.167Z,4.10
2018-07-07T20:37:28.504Z,2.77
2018-07-07T20:39:57.905Z,6.23
2018-07-07T20:42:27.317Z,3.17
2018-07-07T20:44:56.713Z,2.57
2018-07-07T20:47:26.102Z,2.83
2018-07-07T20:49:55.514Z,3.83
2018-07-07T20:52:24.856Z,3.43
2018-07-07T20:54:56.269Z,3.37
2018-07-07T20:57:25.623Z,3.03
2018-07-07T20:59:54.957Z,3.33
2018-07-07T21:02:24.309Z,3.43
2018-07-07T21:04:53.710Z,3.50
2018-07-07T21:07:23.050Z,3.07
2018-07-07T21:09:52.427Z,3.67
2018-07-07T21:12:21.833Z,3.63
2018-07-07T21:14:51.221Z,3.67
2018-07-07T21:17:20.538Z,3.67
2018-07-07T21:19:49.932Z,4.73
2018-07-07T21:22:19.321Z,3.40
2018-07-07T21:24:48.784Z,3.53
2018-07-07T21:27:18.145Z,3.93
2018-07-07T21:29:47.498Z,3.60
2018-07-07T21:32:16.829Z,3.67
2018-07-07T21:34:46.173Z,3.33
2018-07-07T21:37:15.565Z,4.33
2018-07-07T21:39:44.957Z,5.63
2018-07-07T21:42:14.469Z,3.77
2018-07-07T21:44:43.844Z,3.97
2018-07-07T21:47:13.172Z,3.20
2018-07-07T21:49:42.514Z,3.70
2018-07-07T21:52:11.956Z,3.63
2018-07-07T21:54:41.353Z,3.33
2018-07-07T21:57:23.568Z,4.93
2018-07-07T21:59:52.986Z,5.10
2018-07-07T22:02:27.465Z,4.50
2018-07-07T22:05:02.023Z,3.60
2018-07-07T22:07:36.635Z,3.20
2018-07-07T22:10:06.137Z,2.53
2018-07-07T22:12:35.528Z,3.47
2018-07-07T22:15:13.290Z,3.30
2018-07-07T22:17:42.553Z,3.40
2018-07-07T22:20:11.992Z,3.43
2018-07-07T22:22:41.293Z,3.30
2018-07-07T22:25:10.721Z,3.47
2018-07-07T22:27:40.098Z,3.63
2018-07-07T22:30:09.545Z,3.17
2018-07-07T22:32:38.973Z,3.27
2018-07-07T22:35:25.072Z,3.90
2018-07-07T22:37:54.461Z,3.67
2018-07-07T22:40:23.900Z,5.83
2018-07-07T22:42:53.200Z,3.80
2018-07-07T22:45:26.548Z,6.50
2018-07-07T22:47:55.921Z,3.57
2018-07-07T22:50:25.336Z,3.83
2018-07-07T22:52:54.672Z,3.27
2018-07-07T22:55:25.061Z,3.30
2018-07-07T22:57:54.441Z,2.80
2018-07-07T23:00:28.861Z,3.70
2018-07-07T23:05:47.974Z,3.77
2018-07-07T23:08:17.088Z,3.43
2018-07-07T23:10:46.165Z,4.70
2018-07-07T23:13:15.248Z,6.97
2018-07-07T23:15:44.541Z,4.03
2018-07-07T23:18:16.746Z,5.60
2018-07-07T23:20:46.017Z,4.30
2018-07-07T23:23:15.418Z,3.67
2018-07-07T23:25:44.963Z,3.60
2018-07-07T23:28:14.359Z,4.00
2018-07-07T23:30:43.693Z,3.37
2018-07-07T23:33:13.049Z,4.10
2018-07-07T23:35:49.822Z,7.50
2018-07-07T23:38:19.205Z,4.00
2018-07-07T23:40:48.609Z,3.80
2018-07-07T23:43:18.021Z,3.90
2018-07-07T23:46:04.661Z,5.00
2018-07-07T23:48:33.997Z,4.10
2018-07-07T23:51:03.337Z,3.27
2018-07-07T23:53:32.752Z,3.67
2018-07-07T23:56:36.869Z,4.97
2018-07-07T23:59:06.324Z,3.90
